createdAt,value
2019-03-20T00:00:25.161Z,4.73
2019-03-20T00:01:28.852Z,5.17
2019-03-20T00:02:32.520Z,6.07
2019-03-20T00:03:36.165Z,5.80
2019-03-20T00:04:49.321Z,6.50
2019-03-20T00:05:45.151Z,6.77
2019-03-20T00:06:48.785Z,6.13
2019-03-20T00:07:52.394Z,6.60
2019-03-20T00:08:56.028Z,6.67
2019-03-20T00:09:59.662Z,6.07
2019-03-20T00:11:03.374Z,7.10
2019-03-20T00:12:07.002Z,6.70
2019-03-20T00:13:10.743Z,6.30
2019-03-20T00:14:14.377Z,5.67
2019-03-20T00:15:20.631Z,6.13
2019-03-20T00:16:28.219Z,5.03
2019-03-20T00:17:31.779Z,5.47
2019-03-20T00:18:35.451Z,5.27
2019-03-20T00:19:39.078Z,5.37
2019-03-20T00:20:43.024Z,5.17
2019-03-20T00:21:46.658Z,5.93
2019-03-20T00:22:50.319Z,4.97
2019-03-20T00:23:54.018Z,5.47
2019-03-20T00:24:57.651Z,5.20
2019-03-20T00:26:01.277Z,5.80
2019-03-20T00:27:04.971Z,5.60
2019-03-20T00:28:08.643Z,5.43
2019-03-20T00:29:12.672Z,4.87
2019-03-20T00:30:20.247Z,5.27
2019-03-20T00:31:23.877Z,5.70
2019-03-20T00:32:27.503Z,5.03
2019-03-20T00:33:31.239Z,4.93
2019-03-20T00:34:35.007Z,5.53
2019-03-20T00:35:38.637Z,6.97
2019-03-20T00:36:42.263Z,8.23
2019-03-20T00:37:45.905Z,8.17
2019-03-20T00:38:49.593Z,8.67
2019-03-20T00:39:53.223Z,8.13
2019-03-20T00:40:56.844Z,8.87
2019-03-20T00:42:00.473Z,8.13
2019-03-20T00:43:04.111Z,7.27
2019-03-20T00:44:07.767Z,7.47
2019-03-20T00:45:16.020Z,7.33
2019-03-20T00:46:19.653Z,7.27
2019-03-20T00:47:23.286Z,7.50
2019-03-20T00:48:26.907Z,7.33
2019-03-20T00:49:30.582Z,7.40
2019-03-20T00:50:34.197Z,7.23
2019-03-20T00:51:37.839Z,7.27
2019-03-20T00:52:41.804Z,6.90
2019-03-20T00:53:46.017Z,7.00
2019-03-20T00:54:49.606Z,6.67
2019-03-20T00:55:53.240Z,8.53
2019-03-20T00:56:56.873Z,10.80
2019-03-20T00:58:00.504Z,9.47
2019-03-20T00:59:04.222Z,9.50
2019-03-20T01:00:10.781Z,8.23
2019-03-20T01:01:14.577Z,8.23
2019-03-20T01:02:18.521Z,6.97
2019-03-20T01:03:22.156Z,7.07
2019-03-20T01:04:25.794Z,6.80
2019-03-20T01:05:29.455Z,6.23
2019-03-20T01:06:33.406Z,6.77
2019-03-20T01:07:37.037Z,7.30
2019-03-20T01:08:40.607Z,6.53
2019-03-20T01:09:44.229Z,7.23
2019-03-20T01:10:47.895Z,6.17
2019-03-20T01:11:51.523Z,6.63
2019-03-20T01:12:55.330Z,6.40
2019-03-20T01:13:58.957Z,6.00
2019-03-20T01:15:02.660Z,6.33
2019-03-20T01:16:06.415Z,6.40
2019-03-20T01:17:10.474Z,6.67
2019-03-20T01:18:14.106Z,6.47
2019-03-20T01:19:18.127Z,6.80
2019-03-20T01:20:22.664Z,6.33
2019-03-20T01:21:26.514Z,6.07
2019-03-20T01:22:30.208Z,6.63
2019-03-20T01:23:33.826Z,5.97
2019-03-20T01:24:37.392Z,6.00
2019-03-20T01:25:41.031Z,5.53
2019-03-20T01:26:44.690Z,6.17
2019-03-20T01:27:48.323Z,5.57
2019-03-20T01:28:52.154Z,5.90
2019-03-20T01:29:56.094Z,6.00
2019-03-20T01:30:59.785Z,5.23
2019-03-20T01:32:03.444Z,5.23
2019-03-20T01:33:14.402Z,5.00
2019-03-20T01:34:18.102Z,4.73
2019-03-20T01:35:24.092Z,4.60
2019-03-20T01:36:27.076Z,5.70
2019-03-20T01:37:30.736Z,4.70
2019-03-20T01:38:34.306Z,5.43
2019-03-20T01:39:37.922Z,4.90
2019-03-20T01:40:41.550Z,5.10
2019-03-20T01:41:45.188Z,5.20
2019-03-20T01:42:48.856Z,6.00
2019-03-20T01:43:52.470Z,5.13
2019-03-20T01:44:56.125Z,5.40
2019-03-20T01:45:59.737Z,5.80
2019-03-20T01:47:03.357Z,5.57
2019-03-20T01:48:07.127Z,6.30
2019-03-20T01:49:11.061Z,5.83
2019-03-20T01:50:14.699Z,6.67
2019-03-20T01:51:22.183Z,7.10
2019-03-20T01:52:25.810Z,6.40
2019-03-20T01:53:29.410Z,7.53
2019-03-20T01:54:32.971Z,6.93
2019-03-20T01:55:37.174Z,6.90
2019-03-20T01:56:41.219Z,6.33
2019-03-20T01:57:45.216Z,5.43
2019-03-20T01:58:48.893Z,5.40
2019-03-20T01:59:52.524Z,6.20
2019-03-20T02:00:56.239Z,5.80
2019-03-20T02:01:59.868Z,5.90
2019-03-20T02:03:03.931Z,6.60
2019-03-20T02:04:07.589Z,6.37
2019-03-20T02:05:11.518Z,6.03
2019-03-20T02:06:15.146Z,7.00
2019-03-20T02:07:18.782Z,6.93
2019-03-20T02:08:22.407Z,6.83
2019-03-20T02:09:26.068Z,6.20
2019-03-20T02:10:29.823Z,6.20
2019-03-20T02:11:33.442Z,6.60
2019-03-20T02:12:37.205Z,6.10
2019-03-20T02:13:40.842Z,6.07
2019-03-20T02:14:44.959Z,6.40
2019-03-20T02:15:48.928Z,6.23
2019-03-20T02:16:52.572Z,5.93
2019-03-20T02:17:56.283Z,5.77
2019-03-20T02:18:59.906Z,5.67
2019-03-20T02:20:03.674Z,4.93
2019-03-20T02:21:07.374Z,5.13
2019-03-20T02:22:10.934Z,5.63
2019-03-20T02:23:14.560Z,5.53
2019-03-20T02:24:18.189Z,5.30
2019-03-20T02:25:21.849Z,5.37
2019-03-20T02:26:25.520Z,4.67
2019-03-20T02:27:29.149Z,5.07
2019-03-20T02:28:33.137Z,5.37
2019-03-20T02:29:36.757Z,5.47
2019-03-20T02:30:40.497Z,5.03
2019-03-20T02:31:44.131Z,5.07
2019-03-20T02:32:47.919Z,5.10
2019-03-20T02:33:51.590Z,4.77
2019-03-20T02:34:55.269Z,5.67
2019-03-20T02:35:58.937Z,5.40
2019-03-20T02:37:02.667Z,6.10
2019-03-20T02:38:06.294Z,5.83
2019-03-20T02:39:10.309Z,6.07
2019-03-20T02:40:17.072Z,5.57
2019-03-20T02:41:20.630Z,5.83
2019-03-20T02:42:24.253Z,5.47
2019-03-20T02:43:27.907Z,6.20
2019-03-20T02:44:31.507Z,5.80
2019-03-20T02:45:35.243Z,6.87
2019-03-20T02:46:38.973Z,6.53
2019-03-20T02:47:42.596Z,6.20
2019-03-20T02:48:46.231Z,7.27
2019-03-20T02:49:49.949Z,6.53
2019-03-20T02:50:53.579Z,6.70
2019-03-20T02:51:57.237Z,6.30
2019-03-20T02:53:00.863Z,6.73
2019-03-20T02:54:04.494Z,12.97
2019-03-20T02:55:09.918Z,6.90
2019-03-20T02:56:13.571Z,6.23
2019-03-20T02:57:17.552Z,7.73
2019-03-20T02:58:21.150Z,6.20
2019-03-20T02:59:24.781Z,6.70
2019-03-20T03:00:28.517Z,7.53
2019-03-20T03:01:32.151Z,7.27
2019-03-20T03:02:35.815Z,7.00
2019-03-20T03:03:39.454Z,7.70
2019-03-20T03:04:43.082Z,7.47
2019-03-20T03:05:46.717Z,7.27
2019-03-20T03:06:50.342Z,7.00
2019-03-20T03:07:54.014Z,6.80
2019-03-20T03:08:57.644Z,6.53
2019-03-20T03:10:01.272Z,5.93
2019-03-20T03:11:05.041Z,6.07
2019-03-20T03:12:08.675Z,6.57
2019-03-20T03:13:12.341Z,5.87
2019-03-20T03:14:15.977Z,5.97
2019-03-20T03:15:19.607Z,6.67
2019-03-20T03:16:23.254Z,7.00
2019-03-20T03:17:26.887Z,6.87
2019-03-20T03:18:30.560Z,7.00
2019-03-20T03:19:34.507Z,6.33
2019-03-20T03:20:38.164Z,6.83
2019-03-20T03:21:41.795Z,6.47
2019-03-20T03:22:45.431Z,6.77
2019-03-20T03:23:49.101Z,7.60
2019-03-20T03:24:52.728Z,7.37
2019-03-20T03:25:56.364Z,7.23
2019-03-20T03:27:00.006Z,7.43
2019-03-20T03:28:03.741Z,7.77
2019-03-20T03:29:07.396Z,7.77
2019-03-20T03:30:20.055Z,6.87
2019-03-20T03:31:23.938Z,6.63
2019-03-20T03:32:27.590Z,6.70
2019-03-20T03:33:31.299Z,6.50
2019-03-20T03:34:34.977Z,7.30
2019-03-20T03:35:38.957Z,6.60
2019-03-20T03:36:42.911Z,6.03
2019-03-20T03:37:46.564Z,6.50
2019-03-20T03:38:50.165Z,6.97
2019-03-20T03:39:53.832Z,7.27
2019-03-20T03:40:57.464Z,6.53
2019-03-20T03:42:01.103Z,6.23
2019-03-20T03:43:04.740Z,6.50
2019-03-20T03:44:08.378Z,6.93
2019-03-20T03:45:18.303Z,6.10
2019-03-20T03:46:21.951Z,6.50
2019-03-20T03:47:25.588Z,5.80
2019-03-20T03:48:29.132Z,7.63
2019-03-20T03:49:32.777Z,6.60
2019-03-20T03:50:36.539Z,6.80
2019-03-20T03:51:40.098Z,6.97
2019-03-20T03:52:43.931Z,6.67
2019-03-20T03:53:47.556Z,7.93
2019-03-20T03:54:51.187Z,7.53
2019-03-20T03:55:54.857Z,7.00
2019-03-20T03:56:58.490Z,7.50
2019-03-20T03:58:02.122Z,8.33
2019-03-20T03:59:05.873Z,7.87
2019-03-20T04:00:18.744Z,7.37
2019-03-20T04:01:22.483Z,7.80
2019-03-20T04:02:26.136Z,7.37
2019-03-20T04:03:30.337Z,7.37
2019-03-20T04:04:33.965Z,8.27
2019-03-20T04:05:37.607Z,7.13
2019-03-20T04:06:41.268Z,6.10
2019-03-20T04:07:44.914Z,6.47
2019-03-20T04:08:48.554Z,6.33
2019-03-20T04:09:52.172Z,6.53
2019-03-20T04:10:55.817Z,6.37
2019-03-20T04:11:59.475Z,7.10
2019-03-20T04:13:03.104Z,7.50
2019-03-20T04:14:06.751Z,6.80
2019-03-20T04:15:12.548Z,6.67
2019-03-20T04:17:37.784Z,7.17
2019-03-20T04:18:41.424Z,6.97
2019-03-20T04:19:45.115Z,7.70
2019-03-20T04:20:48.737Z,7.30
2019-03-20T04:21:52.379Z,8.33
2019-03-20T04:22:56.037Z,7.50
2019-03-20T04:23:59.675Z,6.83
2019-03-20T04:25:03.714Z,6.60
2019-03-20T04:26:09.925Z,6.17
2019-03-20T04:27:13.577Z,6.93
2019-03-20T04:28:17.258Z,6.73
2019-03-20T04:29:20.891Z,7.13
2019-03-20T04:30:24.516Z,6.80
2019-03-20T04:31:28.145Z,7.30
2019-03-20T04:32:31.844Z,7.30
2019-03-20T04:33:35.594Z,7.37
2019-03-20T04:34:39.297Z,7.20
2019-03-20T04:35:42.935Z,7.77
2019-03-20T04:36:47.986Z,7.70
2019-03-20T04:37:52.009Z,9.33
2019-03-20T04:38:55.668Z,10.53
2019-03-20T04:39:59.316Z,11.33
2019-03-20T04:41:02.948Z,10.00
2019-03-20T04:42:06.599Z,8.43
2019-03-20T04:43:10.223Z,9.97
2019-03-20T04:44:13.823Z,9.67
2019-03-20T04:45:17.863Z,9.17
2019-03-20T04:46:21.512Z,8.73
2019-03-20T04:47:25.121Z,8.30
2019-03-20T04:48:28.786Z,9.63
2019-03-20T04:49:32.427Z,13.10
2019-03-20T04:50:35.987Z,11.10
2019-03-20T04:51:39.571Z,11.20
2019-03-20T04:52:43.143Z,10.57
2019-03-20T04:53:46.895Z,11.90
2019-03-20T04:54:50.520Z,9.63
2019-03-20T04:55:54.190Z,8.60
2019-03-20T04:56:57.789Z,7.87
2019-03-20T04:58:01.412Z,8.70
2019-03-20T04:59:05.934Z,7.70
2019-03-20T05:00:14.974Z,16.37
2019-03-20T05:01:18.598Z,11.90
2019-03-20T05:02:22.287Z,9.20
2019-03-20T05:03:25.930Z,9.00
2019-03-20T05:04:33.949Z,10.80
2019-03-20T05:05:37.594Z,10.70
2019-03-20T05:06:41.291Z,10.47
2019-03-20T05:07:45.054Z,9.90
2019-03-20T05:08:48.685Z,13.07
2019-03-20T05:09:52.349Z,12.97
2019-03-20T05:10:55.980Z,12.90
2019-03-20T05:11:59.977Z,11.63
2019-03-20T05:13:03.687Z,10.60
2019-03-20T05:14:07.320Z,10.67
2019-03-20T05:15:14.790Z,14.63
2019-03-20T05:16:18.412Z,10.27
2019-03-20T05:17:23.698Z,9.43
2019-03-20T05:18:27.330Z,8.77
2019-03-20T05:19:30.963Z,8.73
2019-03-20T05:20:34.627Z,8.30
2019-03-20T05:21:38.200Z,8.30
2019-03-20T05:22:44.108Z,8.10
2019-03-20T05:23:47.810Z,8.37
2019-03-20T05:24:51.516Z,7.70
2019-03-20T05:25:55.634Z,7.80
2019-03-20T05:26:59.366Z,7.80
2019-03-20T05:28:02.928Z,8.10
2019-03-20T05:29:06.552Z,8.07
2019-03-20T05:30:12.928Z,7.90
2019-03-20T05:31:16.661Z,8.87
2019-03-20T05:32:20.290Z,7.30
2019-03-20T05:33:23.933Z,7.30
2019-03-20T05:34:27.555Z,7.73
2019-03-20T05:35:31.193Z,14.77
2019-03-20T05:36:34.865Z,10.83
2019-03-20T05:37:38.510Z,10.93
2019-03-20T05:38:42.137Z,10.87
2019-03-20T05:39:45.775Z,10.80
2019-03-20T05:40:49.466Z,10.33
2019-03-20T05:41:53.141Z,10.33
2019-03-20T05:42:56.816Z,11.17
2019-03-20T05:44:00.450Z,10.93
2019-03-20T05:45:05.127Z,11.80
2019-03-20T05:46:08.765Z,11.87
2019-03-20T05:47:12.396Z,12.07
2019-03-20T05:48:16.037Z,13.10
2019-03-20T05:49:19.670Z,12.83
2019-03-20T05:51:14.847Z,16.03
2019-03-20T05:52:18.484Z,16.10
2019-03-20T05:53:22.113Z,15.27
2019-03-20T05:54:25.747Z,16.00
2019-03-20T05:55:29.380Z,14.83
2019-03-20T05:56:33.056Z,14.93
2019-03-20T05:57:36.684Z,13.17
2019-03-20T05:58:40.243Z,12.83
2019-03-20T05:59:43.876Z,13.40
2019-03-20T06:00:47.576Z,13.43
2019-03-20T06:01:51.174Z,14.37
2019-03-20T06:02:54.730Z,13.53
2019-03-20T06:03:58.361Z,12.10
2019-03-20T06:05:01.999Z,12.10
2019-03-20T06:06:05.635Z,14.00
2019-03-20T06:07:09.370Z,13.50
2019-03-20T06:08:13.006Z,14.70
2019-03-20T06:09:16.647Z,13.77
2019-03-20T06:10:20.607Z,14.10
2019-03-20T06:11:24.641Z,14.17
2019-03-20T06:12:28.315Z,15.70
2019-03-20T06:13:32.341Z,15.80
2019-03-20T06:14:35.977Z,16.73
2019-03-20T06:15:39.618Z,16.43
2019-03-20T06:16:43.257Z,16.07
2019-03-20T06:17:47.210Z,15.17
2019-03-20T06:18:51.014Z,14.33
2019-03-20T06:19:54.678Z,13.00
2019-03-20T06:20:58.285Z,12.30
2019-03-20T06:22:01.917Z,13.30
2019-03-20T06:23:05.990Z,13.93
2019-03-20T06:24:09.629Z,13.57
2019-03-20T06:25:14.409Z,12.03
2019-03-20T06:26:18.038Z,12.53
2019-03-20T06:27:21.593Z,12.87
2019-03-20T06:28:25.195Z,14.17
2019-03-20T06:29:28.829Z,12.53
2019-03-20T06:30:32.397Z,13.07
2019-03-20T06:31:36.041Z,12.37
2019-03-20T06:32:39.781Z,13.03
2019-03-20T06:33:43.450Z,13.87
2019-03-20T06:34:48.954Z,11.77
2019-03-20T06:35:52.649Z,12.00
2019-03-20T06:36:58.637Z,11.33
2019-03-20T06:38:02.271Z,10.83
2019-03-20T06:39:07.284Z,10.90
2019-03-20T06:40:12.921Z,9.87
2019-03-20T06:41:16.552Z,8.63
2019-03-20T06:42:20.188Z,9.00
2019-03-20T06:43:23.830Z,8.70
2019-03-20T06:44:27.571Z,9.13
2019-03-20T06:45:31.197Z,9.50
2019-03-20T06:46:34.929Z,9.27
2019-03-20T06:47:38.575Z,10.60
2019-03-20T06:48:42.207Z,12.73
2019-03-20T06:49:45.877Z,11.37
2019-03-20T06:50:49.526Z,10.77
2019-03-20T06:51:53.162Z,10.00
2019-03-20T06:52:56.790Z,9.53
2019-03-20T06:54:00.428Z,9.53
2019-03-20T06:55:04.695Z,9.83
2019-03-20T06:56:08.327Z,10.13
2019-03-20T06:57:11.955Z,9.53
2019-03-20T06:58:15.584Z,9.60
2019-03-20T06:59:31.433Z,11.47
2019-03-20T07:00:50.069Z,15.37
2019-03-20T07:01:53.571Z,9.33
2019-03-20T07:02:58.654Z,9.43
2019-03-20T07:04:11.051Z,9.23
2019-03-20T07:05:20.324Z,9.60
2019-03-20T07:06:32.607Z,9.50
2019-03-20T07:07:43.916Z,8.83
2019-03-20T07:08:51.126Z,8.80
2019-03-20T07:10:00.455Z,9.07
2019-03-20T07:11:06.015Z,8.70
2019-03-20T07:12:09.651Z,9.03
2019-03-20T07:13:13.670Z,9.50
2019-03-20T07:14:17.305Z,9.57
2019-03-20T07:15:21.110Z,9.20
2019-03-20T07:16:24.723Z,9.27
2019-03-20T07:17:28.375Z,9.10
2019-03-20T07:18:32.029Z,9.43
2019-03-20T07:19:35.665Z,8.57
2019-03-20T07:20:39.263Z,8.80
2019-03-20T07:21:42.965Z,9.03
2019-03-20T07:22:46.675Z,9.50
2019-03-20T07:23:52.772Z,9.57
2019-03-20T07:24:56.412Z,9.60
2019-03-20T07:26:00.112Z,9.40
2019-03-20T07:27:03.743Z,8.97
2019-03-20T07:28:07.372Z,9.17
2019-03-20T07:29:11.004Z,8.80
2019-03-20T07:30:14.642Z,9.30
2019-03-20T07:31:18.310Z,8.87
2019-03-20T07:32:21.952Z,8.60
2019-03-20T07:33:25.513Z,9.40
2019-03-20T07:34:29.144Z,8.83
2019-03-20T07:35:32.782Z,9.70
2019-03-20T07:36:36.431Z,9.33
2019-03-20T07:37:40.063Z,9.07
2019-03-20T07:38:43.709Z,9.57
2019-03-20T07:39:47.345Z,9.57
2019-03-20T07:40:50.982Z,8.60
2019-03-20T07:41:54.657Z,9.20
2019-03-20T07:43:08.280Z,8.47
2019-03-20T07:44:03.659Z,8.67
2019-03-20T07:45:09.835Z,8.67
2019-03-20T07:46:13.471Z,8.70
2019-03-20T07:47:17.109Z,8.93
2019-03-20T07:48:22.353Z,9.00
2019-03-20T07:49:26.104Z,8.57
2019-03-20T07:50:32.022Z,8.10
2019-03-20T07:51:36.036Z,8.50
2019-03-20T07:52:39.710Z,8.17
2019-03-20T07:53:43.340Z,8.53
2019-03-20T07:54:46.977Z,8.50
2019-03-20T07:55:51.016Z,9.20
2019-03-20T07:56:54.654Z,8.50
2019-03-20T07:57:58.321Z,9.53
2019-03-20T07:59:01.970Z,9.20
2019-03-20T08:00:08.506Z,8.43
2019-03-20T08:01:12.214Z,8.53
2019-03-20T08:02:15.839Z,7.97
2019-03-20T08:03:19.505Z,8.40
2019-03-20T08:04:23.075Z,8.40
2019-03-20T08:05:29.462Z,8.40
2019-03-20T08:06:32.149Z,8.23
2019-03-20T08:07:37.859Z,7.83
2019-03-20T08:08:41.567Z,7.23
2019-03-20T08:09:45.198Z,7.57
2019-03-20T08:10:49.388Z,7.87
2019-03-20T08:11:53.053Z,8.23
2019-03-20T08:12:56.684Z,7.97
2019-03-20T08:14:00.322Z,8.00
2019-03-20T08:15:05.476Z,7.73
2019-03-20T08:16:09.479Z,7.37
2019-03-20T08:17:13.367Z,7.67
2019-03-20T08:18:17.377Z,7.77
2019-03-20T08:19:20.936Z,7.73
2019-03-20T08:20:31.361Z,6.70
2019-03-20T08:21:35.058Z,7.40
2019-03-20T08:22:40.394Z,7.90
2019-03-20T08:23:44.117Z,7.37
2019-03-20T08:24:47.756Z,6.87
2019-03-20T08:25:51.395Z,7.30
2019-03-20T08:26:55.026Z,7.97
2019-03-20T08:27:58.760Z,7.43
2019-03-20T08:29:02.469Z,7.37
2019-03-20T08:30:09.013Z,7.20
2019-03-20T08:31:12.644Z,7.60
2019-03-20T08:32:16.214Z,7.10
2019-03-20T08:33:19.863Z,7.57
2019-03-20T08:34:23.607Z,7.23
2019-03-20T08:35:27.249Z,7.00
2019-03-20T08:36:30.888Z,6.97
2019-03-20T08:37:34.524Z,7.23
2019-03-20T08:38:38.191Z,7.03
2019-03-20T08:39:41.826Z,7.33
2019-03-20T08:40:46.712Z,7.20
2019-03-20T08:43:24.122Z,7.83
2019-03-20T08:44:27.782Z,11.97
2019-03-20T08:45:31.426Z,11.20
2019-03-20T08:46:35.113Z,7.80
2019-03-20T08:49:00.126Z,6.93
2019-03-20T08:50:07.850Z,6.80
2019-03-20T08:51:11.551Z,7.13
2019-03-20T08:52:15.181Z,6.70
2019-03-20T08:53:18.815Z,6.60
2019-03-20T08:54:25.219Z,6.43
2019-03-20T08:55:28.869Z,6.20
2019-03-20T08:56:33.234Z,6.27
2019-03-20T08:57:37.145Z,7.47
2019-03-20T08:58:40.886Z,5.93
2019-03-20T08:59:44.581Z,6.60
2019-03-20T09:00:48.259Z,7.47
2019-03-20T09:01:51.963Z,6.93
2019-03-20T09:02:55.769Z,7.33
2019-03-20T09:03:59.388Z,6.70
2019-03-20T09:05:03.028Z,11.37
2019-03-20T09:06:06.780Z,6.87
2019-03-20T09:07:10.428Z,7.03
2019-03-20T09:08:14.176Z,6.33
2019-03-20T09:09:17.822Z,6.78
2019-03-20T09:10:26.048Z,6.03
2019-03-20T09:12:52.676Z,6.83
2019-03-20T09:13:56.284Z,7.33
2019-03-20T09:14:59.941Z,7.42
2019-03-20T09:16:03.977Z,6.70
2019-03-20T09:17:07.640Z,6.83
2019-03-20T09:18:11.352Z,6.75
2019-03-20T09:19:14.990Z,6.90
2019-03-20T09:20:24.971Z,7.33
2019-03-20T09:21:28.622Z,6.45
2019-03-20T09:22:32.289Z,6.37
2019-03-20T09:23:36.119Z,7.30
2019-03-20T09:24:40.046Z,7.72
2019-03-20T09:25:43.685Z,7.08
2019-03-20T09:26:47.333Z,6.90
2019-03-20T09:27:51.109Z,6.83
2019-03-20T09:28:54.732Z,6.58
2019-03-20T09:29:58.504Z,6.80
2019-03-20T09:31:02.073Z,6.37
2019-03-20T09:32:05.711Z,6.17
2019-03-20T09:33:09.375Z,6.00
2019-03-20T09:34:13.068Z,5.90
2019-03-20T09:35:16.725Z,6.72
2019-03-20T09:36:20.357Z,6.90
2019-03-20T09:37:24.365Z,6.95
2019-03-20T09:38:28.032Z,6.70
2019-03-20T09:39:31.667Z,6.28
2019-03-20T09:40:35.423Z,7.05
2019-03-20T09:41:39.151Z,6.78
2019-03-20T09:42:42.798Z,6.78
2019-03-20T09:43:46.455Z,6.87
2019-03-20T09:44:50.164Z,6.17
2019-03-20T09:45:53.792Z,6.60
2019-03-20T09:46:57.441Z,6.80
2019-03-20T09:48:01.066Z,6.50
2019-03-20T09:49:04.763Z,6.50
2019-03-20T09:50:13.622Z,5.97
2019-03-20T09:51:17.599Z,7.28
2019-03-20T09:52:21.236Z,6.17
2019-03-20T09:53:25.420Z,6.40
2019-03-20T09:54:29.089Z,6.08
2019-03-20T09:55:33.083Z,6.97
2019-03-20T09:56:36.720Z,6.42
2019-03-20T09:57:40.354Z,6.65
2019-03-20T09:58:43.983Z,6.28
2019-03-20T09:59:47.709Z,5.75
2019-03-20T10:00:51.345Z,6.08
2019-03-20T10:01:54.911Z,6.60
2019-03-20T10:02:58.554Z,6.80
2019-03-20T10:04:02.182Z,7.60
2019-03-20T10:05:07.357Z,7.20
2019-03-20T10:06:10.995Z,7.00
2019-03-20T10:07:14.578Z,7.92
2019-03-20T10:08:18.205Z,7.08
2019-03-20T10:09:21.836Z,6.10
2019-03-20T10:10:29.620Z,5.95
2019-03-20T10:11:33.291Z,6.33
2019-03-20T10:12:36.954Z,6.45
2019-03-20T10:13:40.624Z,6.75
2019-03-20T10:14:44.612Z,7.03
2019-03-20T10:15:48.275Z,7.87
2019-03-20T10:16:51.990Z,6.30
2019-03-20T10:17:55.671Z,6.33
2019-03-20T10:18:59.337Z,6.08
2019-03-20T10:20:03.085Z,6.25
2019-03-20T10:21:06.788Z,5.90
2019-03-20T10:22:10.419Z,6.05
2019-03-20T10:23:14.060Z,5.90
2019-03-20T10:24:18.543Z,5.97
2019-03-20T10:25:22.252Z,5.90
2019-03-20T10:26:25.925Z,6.22
2019-03-20T10:27:30.057Z,5.78
2019-03-20T10:28:33.943Z,5.80
2019-03-20T10:29:37.852Z,6.90
2019-03-20T10:30:41.432Z,6.12
2019-03-20T10:31:45.106Z,7.35
2019-03-20T10:32:48.737Z,6.12
2019-03-20T10:33:52.371Z,6.40
2019-03-20T10:34:56.002Z,6.25
2019-03-20T10:35:59.627Z,6.40
2019-03-20T10:37:03.348Z,6.75
2019-03-20T10:38:06.979Z,6.42
2019-03-20T10:39:10.668Z,5.75
2019-03-20T10:40:25.279Z,6.22
2019-03-20T10:41:28.914Z,5.55
2019-03-20T10:42:32.589Z,6.05
2019-03-20T10:43:36.220Z,5.62
2019-03-20T10:44:39.854Z,5.70
2019-03-20T10:45:43.500Z,6.00
2019-03-20T10:46:47.127Z,6.10
2019-03-20T10:47:53.078Z,6.08
2019-03-20T10:48:56.588Z,5.17
2019-03-20T10:50:00.424Z,5.40
2019-03-20T10:51:04.005Z,5.35
2019-03-20T10:52:07.635Z,5.50
2019-03-20T10:53:11.668Z,5.87
2019-03-20T10:54:16.567Z,5.62
2019-03-20T10:55:20.598Z,5.75
2019-03-20T10:56:24.236Z,5.35
2019-03-20T10:57:27.852Z,5.40
2019-03-20T10:58:31.522Z,5.62
2019-03-20T10:59:35.154Z,6.65
2019-03-20T11:00:40.702Z,5.65
2019-03-20T11:01:44.146Z,5.47
2019-03-20T11:02:47.785Z,6.47
2019-03-20T11:03:51.445Z,5.62
2019-03-20T11:04:55.138Z,5.65
2019-03-20T11:05:58.757Z,4.83
2019-03-20T11:07:02.390Z,6.03
2019-03-20T11:08:05.964Z,5.50
2019-03-20T11:09:17.799Z,5.72
2019-03-20T11:10:20.427Z,6.08
2019-03-20T11:11:27.328Z,5.28
2019-03-20T11:12:29.412Z,5.40
2019-03-20T11:13:33.039Z,7.15
2019-03-20T11:14:36.702Z,5.50
2019-03-20T11:15:40.342Z,5.62
2019-03-20T11:16:43.980Z,5.33
2019-03-20T11:17:47.723Z,5.37
2019-03-20T11:18:51.357Z,5.97
2019-03-20T11:19:56.270Z,5.92
2019-03-20T11:21:00.057Z,5.50
2019-03-20T11:22:03.702Z,5.10
2019-03-20T11:23:07.330Z,5.65
2019-03-20T11:24:10.955Z,5.85
2019-03-20T11:25:25.316Z,5.78
2019-03-20T11:26:28.944Z,5.17
2019-03-20T11:27:33.486Z,6.12
2019-03-20T11:28:37.196Z,5.97
2019-03-20T11:29:40.827Z,5.40
2019-03-20T11:30:44.561Z,5.80
2019-03-20T11:31:48.202Z,5.80
2019-03-20T11:32:51.846Z,5.37
2019-03-20T11:33:55.471Z,5.22
2019-03-20T11:34:59.107Z,5.87
2019-03-20T11:36:02.770Z,5.20
2019-03-20T11:37:06.467Z,5.42
2019-03-20T11:38:10.112Z,5.28
2019-03-20T11:39:13.811Z,5.90
2019-03-20T11:40:31.499Z,5.65
2019-03-20T11:41:35.165Z,5.45
2019-03-20T11:42:40.719Z,5.42
2019-03-20T11:43:44.079Z,4.97
2019-03-20T11:44:47.731Z,4.72
2019-03-20T11:45:51.368Z,5.37
2019-03-20T11:46:55.042Z,4.83
2019-03-20T11:47:58.772Z,5.20
2019-03-20T11:49:02.406Z,4.75
2019-03-20T11:50:14.645Z,5.15
2019-03-20T11:51:18.279Z,4.72
2019-03-20T11:52:21.943Z,5.05
2019-03-20T11:53:25.586Z,4.70
2019-03-20T11:54:29.211Z,5.10
2019-03-20T11:55:32.916Z,6.72
2019-03-20T11:56:36.552Z,5.42
2019-03-20T11:57:40.219Z,6.40
2019-03-20T11:58:43.853Z,5.00
2019-03-20T11:59:47.489Z,5.42
2019-03-20T12:00:51.449Z,5.60
2019-03-20T12:01:55.138Z,4.42
2019-03-20T12:02:59.150Z,5.42
2019-03-20T12:04:02.793Z,5.33
2019-03-20T12:05:08.002Z,5.08
2019-03-20T12:06:11.638Z,5.17
2019-03-20T12:07:15.265Z,4.72
2019-03-20T12:08:19.285Z,5.12
2019-03-20T12:09:22.921Z,5.28
2019-03-20T12:10:27.968Z,5.30
2019-03-20T12:11:31.687Z,5.45
2019-03-20T12:12:35.661Z,5.40
2019-03-20T12:13:39.581Z,5.05
2019-03-20T12:14:43.217Z,5.12
2019-03-20T12:15:46.844Z,4.90
2019-03-20T12:16:50.472Z,4.83
2019-03-20T12:17:54.734Z,5.20
2019-03-20T12:18:58.401Z,5.37
2019-03-20T12:20:02.026Z,5.40
2019-03-20T12:21:05.760Z,5.53
2019-03-20T12:22:09.401Z,5.03
2019-03-20T12:23:13.036Z,6.03
2019-03-20T12:24:16.773Z,5.80
2019-03-20T12:25:37.685Z,6.08
2019-03-20T12:26:41.317Z,5.03
2019-03-20T12:27:44.948Z,5.28
2019-03-20T12:28:48.586Z,6.08
2019-03-20T12:29:52.259Z,5.53
2019-03-20T12:30:55.899Z,5.72
2019-03-20T12:31:59.532Z,5.42
2019-03-20T12:33:03.168Z,5.50
2019-03-20T12:34:06.799Z,5.55
2019-03-20T12:35:13.519Z,5.45
2019-03-20T12:36:17.148Z,5.25
2019-03-20T12:37:21.071Z,5.87
2019-03-20T12:38:24.709Z,5.05
2019-03-20T12:39:28.407Z,5.53
2019-03-20T12:40:32.073Z,5.65
2019-03-20T12:41:35.713Z,5.47
2019-03-20T12:42:39.337Z,5.25
2019-03-20T12:43:45.412Z,5.62
2019-03-20T12:44:48.321Z,5.12
2019-03-20T12:45:51.978Z,5.35
2019-03-20T12:46:55.953Z,5.50
2019-03-20T12:47:59.582Z,5.45
2019-03-20T12:49:03.211Z,5.50
2019-03-20T12:50:09.921Z,5.85
2019-03-20T12:51:13.577Z,5.25
2019-03-20T12:52:17.214Z,5.78
2019-03-20T12:53:23.765Z,6.45
2019-03-20T12:54:27.390Z,5.60
2019-03-20T12:55:31.349Z,5.53
2019-03-20T12:56:35.196Z,6.00
2019-03-20T12:57:38.936Z,5.62
2019-03-20T12:58:42.653Z,6.28
2019-03-20T12:59:46.295Z,5.15
2019-03-20T13:01:52.640Z,5.37
2019-03-20T13:02:56.362Z,5.40
2019-03-20T13:04:00.063Z,5.45
2019-03-20T13:05:05.500Z,5.08
2019-03-20T13:06:09.130Z,5.47
2019-03-20T13:07:12.820Z,5.67
2019-03-20T13:08:16.441Z,4.42
2019-03-20T13:09:20.083Z,4.75
2019-03-20T13:10:24.968Z,4.85
2019-03-20T13:11:28.600Z,5.12
2019-03-20T13:12:32.262Z,5.15
2019-03-20T13:13:35.890Z,5.17
2019-03-20T13:14:39.460Z,5.20
2019-03-20T13:15:43.096Z,4.92
2019-03-20T13:16:46.724Z,4.70
2019-03-20T13:17:50.599Z,4.83
2019-03-20T13:18:54.237Z,4.80
2019-03-20T13:19:57.856Z,5.05
2019-03-20T13:21:01.501Z,4.92
2019-03-20T13:22:05.201Z,4.70
2019-03-20T13:23:20.805Z,5.62
2019-03-20T13:24:24.435Z,5.28
2019-03-20T13:25:28.060Z,5.95
2019-03-20T13:26:32.206Z,5.60
2019-03-20T13:27:35.841Z,5.20
2019-03-20T13:28:39.488Z,5.70
2019-03-20T13:29:43.240Z,5.28
2019-03-20T13:30:55.536Z,5.42
2019-03-20T13:31:59.161Z,6.12
2019-03-20T13:33:02.807Z,6.00
2019-03-20T13:34:06.467Z,5.45
2019-03-20T13:35:10.901Z,5.62
2019-03-20T13:36:14.699Z,5.62
2019-03-20T13:37:18.338Z,6.92
2019-03-20T13:38:21.990Z,6.62
2019-03-20T13:39:25.651Z,6.33
2019-03-20T13:40:29.625Z,5.60
2019-03-20T13:41:33.266Z,6.00
2019-03-20T13:42:36.937Z,5.70
2019-03-20T13:43:40.563Z,5.62
2019-03-20T13:44:44.223Z,5.17
2019-03-20T13:45:47.854Z,5.33
2019-03-20T13:46:51.485Z,5.37
2019-03-20T13:47:55.122Z,5.87
2019-03-20T13:48:58.749Z,5.65
2019-03-20T13:50:02.410Z,5.78
2019-03-20T13:51:06.038Z,5.85
2019-03-20T13:52:09.689Z,5.50
2019-03-20T13:53:15.180Z,5.33
2019-03-20T13:54:18.672Z,5.53
2019-03-20T13:55:22.331Z,5.50
2019-03-20T13:56:25.889Z,5.67
2019-03-20T13:57:29.523Z,4.85
2019-03-20T13:58:33.151Z,5.60
2019-03-20T13:59:36.787Z,5.10
2019-03-20T14:00:40.455Z,5.60
2019-03-20T14:01:44.091Z,5.97
2019-03-20T14:02:47.719Z,5.30
2019-03-20T14:03:51.285Z,5.12
2019-03-20T14:04:54.914Z,5.58
2019-03-20T14:05:58.580Z,5.45
2019-03-20T14:07:02.295Z,5.78
2019-03-20T14:08:05.925Z,5.72
2019-03-20T14:09:09.556Z,5.08
2019-03-20T14:10:24.610Z,5.55
2019-03-20T14:11:21.282Z,5.47
2019-03-20T14:12:24.916Z,5.50
2019-03-20T14:13:28.540Z,5.87
2019-03-20T14:14:32.187Z,5.35
2019-03-20T14:15:35.906Z,5.03
2019-03-20T14:16:39.552Z,7.45
2019-03-20T14:17:43.195Z,6.35